首页
METAR-TAF:

METAR-TAF

机场 :

Chanute, 堪薩斯州, 美国

纬度: 37-40-13N, 经度: 095-29-03W, 海拔: 305米

当前天气观测

该预报发布于12分钟前的18:52 UTC
风速23节,风向西南,有时为38节阵风
温度 21°C
湿度 30%
气压 1002 hPa
能見度: 16.1公里
天空无云

METAR: KCNU 281852Z AUTO 22023G38KT 10SM CLR 21/03 A2959 RMK AO2 PK WND 23041/1821 SLP012 T02110033

时间: 14:04 (19:04 UTC)

预报

该预报发布于1小时和41分钟前的17:23 UTC
预报有效从28日的 18点(UTC)到 29日的 18点(UTC)
风速25节,风向西转西南,有时为34节阵风
能見度: 10公里
天空无云
从 28日的 2100点(UTC)
风速27节,风向西转西南,有时为38节阵风
能見度: 10公里
少量云层高于5000英尺
从 29日的 0200点(UTC)
风速19节,风向西,有时为26节阵风
能見度: 10公里
散云层高于3500英尺
从 29日的 0600点(UTC)
风速13节,风向西
能見度: 10公里
少量云层高于25000英尺

TAF: KCNU 281723Z 2818/2918 24025G34KT P6SM SKC FM282100 24027G38KT P6SM FEW050 FM290200 27019G26KT P6SM SCT035 FM290600 27013KT P6SM FEW250

超过4000个机场的气象观测和天气预报(METAR&TAF报告)。

可查询的气象台以黄色和红色小点在地图上表示。

将鼠标移到小点上方,可查看气象台名称。

然后点击查看天气观测和预报。

如需切换地图:点击带黑十字的绿色按钮放大地图;点击带横线的绿色按钮缩小地图;或者点击绿色箭头查看邻近地区的地图。


METAR-TAF: